createdAt,value
2023-08-14T00:00:40.666Z,86.93
2023-08-14T00:01:40.673Z,87.63
2023-08-14T00:02:40.710Z,87.54
2023-08-14T00:03:40.643Z,87.54
2023-08-14T00:04:40.623Z,87.38
2023-08-14T00:05:40.588Z,87.27
2023-08-14T00:06:40.614Z,87.82
2023-08-14T00:07:40.571Z,87.62
2023-08-14T00:08:40.597Z,87.82
2023-08-14T00:09:40.576Z,88.43
2023-08-14T00:10:40.570Z,88.63
2023-08-14T00:11:40.528Z,88.73
2023-08-14T00:12:40.529Z,88.43
2023-08-14T00:13:40.507Z,88.43
2023-08-14T00:14:40.509Z,88.32
2023-08-14T00:15:40.537Z,87.98
2023-08-14T00:16:40.493Z,87.98
2023-08-14T00:17:40.579Z,87.62
2023-08-14T00:18:40.461Z,87.62
2023-08-14T00:19:40.475Z,87.48
2023-08-14T00:20:40.452Z,87.48
2023-08-14T00:21:40.477Z,87.88
2023-08-14T00:22:40.438Z,87.78
2023-08-14T00:23:40.419Z,87.38
2023-08-14T00:24:40.389Z,87.48
2023-08-14T00:25:40.415Z,87.82
2023-08-14T00:26:40.431Z,87.68
2023-08-14T00:27:40.405Z,87.58
2023-08-14T00:28:40.358Z,88.32
2023-08-14T00:29:40.343Z,88.18
2023-08-14T00:30:40.337Z,87.48
2023-08-14T00:31:40.368Z,87.52
2023-08-14T00:32:40.373Z,87.72
2023-08-14T00:33:40.301Z,87.48
2023-08-14T00:34:40.311Z,87.68
2023-08-14T00:35:40.314Z,87.82
2023-08-14T00:36:40.300Z,88.23
2023-08-14T00:37:40.265Z,88.53
2023-08-14T00:38:40.274Z,88.77
2023-08-14T00:39:40.247Z,88.77
2023-08-14T00:40:40.253Z,88.43
2023-08-14T00:41:40.232Z,88.43
2023-08-14T00:42:40.211Z,89.28
2023-08-14T00:43:40.207Z,89.07
2023-08-14T00:44:40.209Z,89.07
2023-08-14T00:45:46.317Z,89.07
2023-08-14T00:46:42.261Z,89.07
2023-08-14T00:47:40.209Z,89.17
2023-08-14T00:48:40.159Z,89.37
2023-08-14T00:49:40.150Z,88.77
2023-08-14T00:50:40.150Z,89.37
2023-08-14T00:51:40.145Z,89.17
2023-08-14T00:52:40.112Z,88.97
2023-08-14T00:53:40.156Z,89.07
2023-08-14T00:54:41.102Z,88.77
2023-08-14T00:55:40.089Z,88.97
2023-08-14T00:56:40.099Z,89.07
2023-08-14T00:57:40.101Z,89.17
2023-08-14T00:58:40.049Z,89.28
2023-08-14T00:59:40.058Z,89.28
2023-08-14T01:00:40.068Z,89.28
2023-08-14T01:01:40.053Z,89.37
2023-08-14T01:02:40.115Z,89.07
2023-08-14T01:03:40.046Z,89.17
2023-08-14T01:04:39.987Z,89.17
2023-08-14T01:05:40.078Z,89.48
2023-08-14T01:06:39.983Z,89.48
2023-08-14T01:07:39.976Z,89.68
2023-08-14T01:08:39.987Z,89.48
2023-08-14T01:09:39.938Z,89.37
2023-08-14T01:10:39.962Z,89.37
2023-08-14T01:11:39.926Z,89.17
2023-08-14T01:12:39.919Z,89.07
2023-08-14T01:13:39.962Z,89.17
2023-08-14T01:14:39.891Z,88.77
2023-08-14T01:15:39.879Z,88.97
2023-08-14T01:16:39.949Z,88.37
2023-08-14T01:17:39.918Z,88.47
2023-08-14T01:18:39.881Z,88.47
2023-08-14T01:19:39.842Z,88.47
2023-08-14T01:20:39.837Z,88.47
2023-08-14T01:21:39.849Z,88.47
2023-08-14T01:22:39.830Z,88.41
2023-08-14T01:23:39.831Z,88.92
2023-08-14T01:24:39.920Z,89.32
2023-08-14T01:25:39.780Z,88.51
2023-08-14T01:26:39.776Z,89.17
2023-08-14T01:27:39.768Z,88.47
2023-08-14T01:28:39.793Z,88.61
2023-08-14T01:29:39.769Z,88.51
2023-08-14T01:30:39.771Z,88.92
2023-08-14T01:31:39.737Z,89.01
2023-08-14T01:32:39.741Z,89.01
2023-08-14T01:33:39.717Z,89.52
2023-08-14T01:34:39.720Z,89.52
2023-08-14T01:35:39.703Z,89.12
2023-08-14T01:36:39.704Z,88.61
2023-08-14T01:37:39.700Z,89.32
2023-08-14T01:38:39.680Z,88.92
2023-08-14T01:39:39.663Z,89.52
2023-08-14T01:40:39.683Z,89.52
2023-08-14T01:41:39.653Z,89.92
2023-08-14T01:42:39.690Z,90.03
2023-08-14T01:43:39.629Z,89.97
2023-08-14T01:44:39.639Z,90.27
2023-08-14T01:45:39.589Z,90.37
2023-08-14T01:46:39.586Z,90.58
2023-08-14T01:47:39.619Z,90.47
2023-08-14T01:48:39.562Z,90.47
2023-08-14T01:49:39.555Z,90.47
2023-08-14T01:50:39.543Z,90.37
2023-08-14T01:51:39.535Z,90.47
2023-08-14T01:52:39.549Z,90.67
2023-08-14T01:53:39.523Z,90.78
2023-08-14T01:54:39.506Z,90.67
2023-08-14T01:55:39.486Z,90.78
2023-08-14T01:56:39.484Z,90.78
2023-08-14T01:57:39.470Z,90.47
2023-08-14T01:58:39.500Z,90.27
2023-08-14T01:59:39.466Z,90.47
2023-08-14T02:00:39.444Z,90.47
2023-08-14T02:01:39.503Z,90.03
2023-08-14T02:02:39.537Z,90.12
2023-08-14T02:03:39.492Z,89.83
2023-08-14T02:04:39.401Z,89.52
2023-08-14T02:05:40.392Z,90.03
2023-08-14T02:06:39.434Z,89.83
2023-08-14T02:07:39.385Z,89.62
2023-08-14T02:08:39.384Z,89.92
2023-08-14T02:09:39.385Z,89.52
2023-08-14T02:10:39.342Z,89.92
2023-08-14T02:11:39.361Z,90.12
2023-08-14T02:12:39.320Z,89.83
2023-08-14T02:13:39.337Z,89.83
2023-08-14T02:14:39.329Z,89.92
2023-08-14T02:15:39.335Z,89.92
2023-08-14T02:16:39.307Z,89.62
2023-08-14T02:17:39.332Z,89.72
2023-08-14T02:18:39.269Z,89.52
2023-08-14T02:19:39.257Z,89.42
2023-08-14T02:21:11.200Z,89.12
2023-08-14T02:21:39.234Z,89.46
2023-08-14T02:22:39.242Z,89.46
2023-08-14T02:23:39.215Z,89.52
2023-08-14T02:24:39.212Z,89.87
2023-08-14T02:25:39.222Z,89.97
2023-08-14T02:26:39.190Z,90.07
2023-08-14T02:27:39.177Z,90.37
2023-08-14T02:28:39.191Z,90.17
2023-08-14T02:29:39.177Z,89.97
2023-08-14T02:30:39.170Z,89.56
2023-08-14T02:31:39.184Z,89.46
2023-08-14T02:32:39.181Z,89.66
2023-08-14T02:33:39.121Z,89.76
2023-08-14T02:34:39.106Z,89.66
2023-08-14T02:35:39.124Z,89.56
2023-08-14T02:36:39.120Z,89.97
2023-08-14T02:37:39.173Z,90.27
2023-08-14T02:38:39.059Z,90.31
2023-08-14T02:39:39.058Z,90.21
2023-08-14T02:40:39.044Z,90.27
2023-08-14T02:41:39.051Z,90.31
2023-08-14T02:42:39.048Z,90.11
2023-08-14T02:43:39.019Z,89.87
2023-08-14T02:44:39.027Z,89.87
2023-08-14T02:45:39.046Z,89.91
2023-08-14T02:46:38.981Z,89.76
2023-08-14T02:47:39.003Z,89.91
2023-08-14T02:48:38.971Z,90.11
2023-08-14T02:49:38.963Z,89.87
2023-08-14T02:50:38.966Z,90.01
2023-08-14T02:51:38.940Z,89.91
2023-08-14T02:52:38.925Z,89.97
2023-08-14T02:53:38.898Z,89.36
2023-08-14T02:54:38.968Z,89.70
2023-08-14T02:55:38.932Z,89.56
2023-08-14T02:56:38.890Z,89.66
2023-08-14T02:57:38.869Z,89.66
2023-08-14T02:58:38.885Z,89.76
2023-08-14T02:59:38.864Z,89.56
2023-08-14T03:00:38.841Z,89.46
2023-08-14T03:01:38.841Z,89.76
2023-08-14T03:02:38.917Z,89.46
2023-08-14T03:03:38.858Z,89.76
2023-08-14T03:04:38.794Z,90.07
2023-08-14T03:05:38.777Z,90.17
2023-08-14T03:06:38.783Z,90.17
2023-08-14T03:07:38.781Z,90.31
2023-08-14T03:08:38.793Z,90.27
2023-08-14T03:09:38.748Z,90.27
2023-08-14T03:10:38.752Z,90.07
2023-08-14T03:11:38.733Z,90.37
2023-08-14T03:12:38.724Z,89.76
2023-08-14T03:13:38.739Z,89.97
2023-08-14T03:14:38.714Z,89.66
2023-08-14T03:15:38.695Z,89.66
2023-08-14T03:16:38.733Z,89.40
2023-08-14T03:17:38.733Z,89.91
2023-08-14T03:18:38.659Z,90.21
2023-08-14T03:19:38.748Z,90.41
2023-08-14T03:20:38.649Z,90.52
2023-08-14T03:21:38.630Z,90.66
2023-08-14T03:22:38.630Z,90.76
2023-08-14T03:23:38.642Z,90.36
2023-08-14T03:24:38.620Z,90.36
2023-08-14T03:25:38.590Z,90.36
2023-08-14T03:26:38.643Z,90.36
2023-08-14T03:27:38.567Z,90.36
2023-08-14T03:28:38.559Z,90.66
2023-08-14T03:29:38.582Z,90.66
2023-08-14T03:30:38.588Z,90.86
2023-08-14T03:31:38.536Z,91.00
2023-08-14T03:32:38.525Z,91.00
2023-08-14T03:33:38.514Z,91.00
2023-08-14T03:34:38.485Z,91.00
2023-08-14T03:35:38.503Z,90.91
2023-08-14T03:36:38.477Z,91.00
2023-08-14T03:37:38.493Z,90.80
2023-08-14T03:38:38.479Z,91.00
2023-08-14T03:39:38.434Z,90.66
2023-08-14T03:40:38.425Z,90.91
2023-08-14T03:41:38.449Z,90.60
2023-08-14T03:42:38.427Z,90.91
2023-08-14T03:43:38.432Z,91.00
2023-08-14T03:44:38.389Z,90.91
2023-08-14T03:45:38.402Z,90.91
2023-08-14T03:46:38.400Z,91.06
2023-08-14T03:47:38.388Z,90.96
2023-08-14T03:48:38.350Z,90.86
2023-08-14T03:49:38.366Z,91.06
2023-08-14T03:50:38.341Z,91.06
2023-08-14T03:51:38.327Z,90.76
2023-08-14T03:52:38.332Z,90.56
2023-08-14T03:53:38.329Z,90.76
2023-08-14T03:54:38.322Z,90.56
2023-08-14T03:55:38.278Z,90.25
2023-08-14T03:56:38.302Z,89.91
2023-08-14T03:57:38.277Z,89.91
2023-08-14T03:58:38.253Z,89.91
2023-08-14T03:59:38.277Z,89.91
2023-08-14T04:00:38.233Z,89.91
2023-08-14T04:01:38.229Z,90.01
2023-08-14T04:02:38.318Z,90.11
2023-08-14T04:03:38.301Z,89.91
2023-08-14T04:04:38.198Z,90.11
2023-08-14T04:05:38.205Z,90.11
2023-08-14T04:06:38.235Z,90.45
2023-08-14T04:07:38.168Z,90.11
2023-08-14T04:08:38.150Z,90.16
2023-08-14T04:09:38.149Z,90.09
2023-08-14T04:10:38.327Z,90.05
2023-08-14T04:11:38.140Z,90.45
2023-08-14T04:12:38.124Z,90.16
2023-08-14T04:13:38.108Z,89.85
2023-08-14T04:14:38.121Z,89.95
2023-08-14T04:15:38.130Z,89.79
2023-08-14T04:16:38.122Z,89.65
2023-08-14T04:17:38.085Z,89.95
2023-08-14T04:18:38.084Z,89.95
2023-08-14T04:19:38.065Z,90.16
2023-08-14T04:20:38.033Z,90.25
2023-08-14T04:21:38.015Z,89.95
2023-08-14T04:22:38.014Z,90.36
2023-08-14T04:23:38.019Z,90.40
2023-08-14T04:24:38.002Z,90.66
2023-08-14T04:25:37.994Z,90.56
2023-08-14T04:26:37.980Z,90.36
2023-08-14T04:27:37.970Z,90.56
2023-08-14T04:28:37.980Z,90.66
2023-08-14T04:29:37.951Z,90.45
2023-08-14T04:30:37.942Z,90.52
2023-08-14T04:31:38.043Z,90.56
2023-08-14T04:32:37.987Z,90.31
2023-08-14T04:33:37.949Z,90.21
2023-08-14T04:34:37.889Z,89.97
2023-08-14T04:35:37.909Z,89.76
2023-08-14T04:36:37.908Z,89.66
2023-08-14T04:37:37.884Z,88.92
2023-08-14T04:38:37.867Z,89.12
2023-08-14T04:39:37.871Z,87.70
2023-08-14T04:40:37.843Z,88.06
2023-08-14T04:41:37.836Z,86.81
2023-08-14T04:42:39.625Z,86.16
2023-08-14T04:43:38.843Z,85.62
2023-08-14T04:44:37.789Z,84.71
2023-08-14T04:45:37.906Z,83.97
2023-08-14T04:46:53.590Z,82.86
2023-08-14T04:47:39.873Z,82.82
2023-08-14T04:48:37.800Z,82.71
2023-08-14T04:49:37.760Z,81.17
2023-08-14T04:50:37.743Z,81.13
2023-08-14T04:51:37.723Z,80.63
2023-08-14T04:52:37.739Z,80.43
2023-08-14T04:53:37.706Z,79.88
2023-08-14T04:54:37.696Z,79.24
2023-08-14T04:55:37.689Z,77.36
2023-08-14T04:56:37.666Z,75.92
2023-08-14T04:57:38.698Z,75.11
2023-08-14T04:58:37.655Z,75.27
2023-08-14T04:59:37.709Z,74.88
2023-08-14T05:00:37.665Z,74.01
2023-08-14T05:01:37.638Z,72.93
2023-08-14T05:02:37.644Z,71.69
2023-08-14T05:03:37.620Z,71.09
2023-08-14T05:04:37.614Z,70.86
2023-08-14T05:05:37.596Z,69.49
2023-08-14T05:06:37.564Z,68.52
2023-08-14T05:07:37.566Z,66.39
2023-08-14T05:08:37.588Z,66.06
2023-08-14T05:09:37.547Z,65.44
2023-08-14T05:10:37.551Z,64.94
2023-08-14T05:11:37.529Z,67.03
2023-08-14T05:12:37.533Z,69.16
2023-08-14T05:13:37.504Z,70.73
2023-08-14T05:14:37.485Z,73.07
2023-08-14T05:15:37.523Z,73.77
2023-08-14T05:16:37.483Z,75.21
2023-08-14T05:17:37.535Z,76.29
2023-08-14T05:18:37.476Z,77.63
2023-08-14T05:19:37.452Z,78.11
2023-08-14T05:20:37.444Z,79.82
2023-08-14T05:21:37.430Z,80.57
2023-08-14T05:22:37.415Z,81.27
2023-08-14T05:23:37.416Z,81.07
2023-08-14T05:24:37.419Z,81.30
2023-08-14T05:25:37.401Z,81.65
2023-08-14T05:26:37.386Z,83.06
2023-08-14T05:27:37.382Z,82.76
2023-08-14T05:28:37.387Z,83.06
2023-08-14T05:29:37.374Z,83.66
2023-08-14T05:30:37.326Z,82.90
2023-08-14T05:31:37.365Z,83.56
2023-08-14T05:32:38.040Z,83.46
2023-08-14T05:33:37.316Z,83.46
2023-08-14T05:34:37.324Z,83.42
2023-08-14T05:35:37.292Z,81.77
2023-08-14T05:36:37.268Z,81.13
2023-08-14T05:37:37.268Z,80.32
2023-08-14T05:38:37.246Z,81.37
2023-08-14T05:39:37.273Z,81.77
2023-08-14T05:40:37.231Z,81.63
2023-08-14T05:41:37.237Z,80.55
2023-08-14T05:42:37.230Z,79.54
2023-08-14T05:43:37.298Z,77.09
2023-08-14T05:44:37.210Z,75.58
2023-08-14T05:45:37.216Z,75.31
2023-08-14T05:46:37.177Z,75.27
2023-08-14T05:47:37.175Z,76.21
2023-08-14T05:48:37.164Z,76.68
2023-08-14T05:49:37.168Z,74.97
2023-08-14T05:50:37.160Z,72.72
2023-08-14T05:51:37.116Z,70.66
2023-08-14T05:52:37.152Z,70.36
2023-08-14T05:53:37.109Z,69.99
2023-08-14T05:54:37.097Z,70.26
2023-08-14T05:55:37.078Z,68.59
2023-08-14T05:56:37.081Z,66.50
2023-08-14T05:57:37.076Z,64.72
2023-08-14T05:58:37.055Z,63.09
2023-08-14T05:59:37.044Z,61.21
2023-08-14T06:00:37.035Z,60.85
2023-08-14T06:01:37.046Z,59.63
2023-08-14T06:02:37.044Z,58.88
2023-08-14T06:03:44.108Z,58.39
2023-08-14T06:04:38.096Z,59.17
2023-08-14T06:05:37.004Z,59.74
2023-08-14T06:06:36.983Z,58.69
2023-08-14T06:07:38.188Z,57.64
2023-08-14T06:08:37.963Z,57.31
2023-08-14T06:09:36.976Z,55.51
2023-08-14T06:10:36.952Z,56.57
2023-08-14T06:11:37.068Z,56.62
2023-08-14T06:12:36.948Z,56.55
2023-08-14T06:13:36.909Z,59.66
2023-08-14T06:14:40.084Z,58.39
2023-08-14T06:15:36.901Z,57.27
2023-08-14T06:16:36.910Z,58.95
2023-08-14T06:17:36.915Z,56.59
2023-08-14T06:18:36.863Z,56.12
2023-08-14T06:19:36.859Z,54.78
2023-08-14T06:20:36.846Z,53.74
2023-08-14T06:21:36.923Z,52.73
2023-08-14T06:22:37.961Z,51.42
2023-08-14T06:23:36.810Z,52.68
2023-08-14T06:24:36.816Z,55.47
2023-08-14T06:25:36.809Z,56.85
2023-08-14T06:26:36.831Z,58.44
2023-08-14T06:27:36.793Z,60.02
2023-08-14T06:28:36.765Z,62.37
2023-08-14T06:29:36.783Z,63.92
2023-08-14T06:30:36.772Z,65.37
2023-08-14T06:31:37.768Z,67.40
2023-08-14T06:32:36.759Z,68.59
2023-08-14T06:33:38.906Z,70.09
2023-08-14T06:34:36.705Z,71.36
2023-08-14T06:35:36.733Z,71.09
2023-08-14T06:36:36.716Z,72.79
2023-08-14T06:37:36.687Z,72.49
2023-08-14T06:38:36.778Z,73.53
2023-08-14T06:39:36.668Z,73.22
2023-08-14T06:40:36.720Z,73.36
2023-08-14T06:41:36.672Z,73.26
2023-08-14T06:42:36.661Z,73.06
2023-08-14T06:43:36.631Z,73.06
2023-08-14T06:44:36.633Z,72.86
2023-08-14T06:45:36.602Z,72.29
2023-08-14T06:46:36.634Z,71.09
2023-08-14T06:47:36.639Z,70.03
2023-08-14T06:48:36.575Z,69.96
2023-08-14T06:49:36.592Z,69.86
2023-08-14T06:50:36.588Z,69.16
2023-08-14T06:51:36.550Z,69.46
2023-08-14T06:52:36.546Z,69.86
2023-08-14T06:53:36.591Z,69.79
2023-08-14T06:54:36.518Z,70.69
2023-08-14T06:55:36.530Z,70.36
2023-08-14T06:56:36.528Z,67.83
2023-08-14T06:57:36.494Z,65.94
2023-08-14T06:58:36.467Z,65.75
2023-08-14T06:59:36.481Z,64.39
2023-08-14T07:00:36.522Z,64.55
2023-08-14T07:01:36.483Z,63.79
2023-08-14T07:02:36.510Z,61.78
2023-08-14T07:03:36.533Z,61.79
2023-08-14T07:04:36.493Z,60.67
2023-08-14T07:05:36.416Z,57.93
2023-08-14T07:06:36.419Z,56.49
2023-08-14T07:07:37.213Z,56.07
2023-08-14T07:08:36.385Z,57.74
2023-08-14T07:09:36.391Z,59.15
2023-08-14T07:10:36.378Z,59.55
2023-08-14T07:11:36.367Z,60.57
2023-08-14T07:12:36.401Z,60.99
2023-08-14T07:13:36.345Z,60.33
2023-08-14T07:14:36.339Z,60.89
2023-08-14T07:15:38.326Z,61.60
2023-08-14T07:16:36.362Z,58.42
2023-08-14T07:17:36.326Z,56.36
2023-08-14T07:18:36.308Z,56.80
2023-08-14T07:19:36.274Z,56.43
2023-08-14T07:20:36.283Z,54.53
2023-08-14T07:21:36.282Z,53.52
2023-08-14T07:22:36.263Z,52.58
2023-08-14T07:23:36.258Z,52.55
2023-08-14T07:24:36.248Z,52.36
2023-08-14T07:25:36.229Z,52.70
2023-08-14T07:26:36.288Z,53.27
2023-08-14T07:27:36.221Z,52.21
2023-08-14T07:28:36.188Z,51.40
2023-08-14T07:29:36.541Z,51.57
2023-08-14T07:30:36.212Z,50.66
2023-08-14T07:31:36.179Z,49.77
2023-08-14T07:32:36.252Z,51.64
2023-08-14T07:33:36.172Z,50.56
2023-08-14T07:34:36.136Z,50.39
2023-08-14T07:35:36.140Z,51.37
2023-08-14T07:36:37.960Z,52.58
2023-08-14T07:37:37.116Z,52.99
2023-08-14T07:38:36.092Z,53.78
2023-08-14T07:39:36.078Z,52.60
2023-08-14T07:40:36.119Z,52.77
2023-08-14T07:41:36.087Z,51.30
2023-08-14T07:42:36.063Z,51.67
2023-08-14T07:43:36.087Z,51.27
2023-08-14T07:44:36.041Z,52.23
2023-08-14T07:45:36.027Z,52.33
2023-08-14T07:46:36.017Z,51.47
2023-08-14T07:47:37.065Z,52.55
2023-08-14T07:48:36.032Z,51.07
2023-08-14T07:49:36.026Z,51.79
2023-08-14T07:50:35.995Z,51.91
2023-08-14T07:51:35.975Z,52.50
2023-08-14T07:52:35.971Z,51.22
2023-08-14T07:53:35.995Z,52.48
2023-08-14T07:54:35.951Z,51.47
2023-08-14T07:55:35.959Z,51.59
2023-08-14T07:56:35.951Z,51.79
2023-08-14T07:57:35.934Z,51.59
2023-08-14T07:58:35.937Z,52.58
2023-08-14T07:59:35.932Z,54.01
2023-08-14T08:00:35.900Z,55.41
2023-08-14T08:01:35.911Z,55.87
2023-08-14T08:02:35.885Z,56.61
2023-08-14T08:03:35.880Z,56.91
2023-08-14T08:05:36.902Z,56.58
2023-08-14T08:06:43.910Z,57.87
2023-08-14T08:07:37.827Z,57.20
2023-08-14T08:08:35.877Z,57.30
2023-08-14T08:09:35.822Z,58.98
2023-08-14T08:10:35.827Z,56.95
2023-08-14T08:11:35.807Z,55.81
2023-08-14T08:12:35.801Z,56.48
2023-08-14T08:13:35.787Z,54.43
2023-08-14T08:14:35.784Z,53.19
2023-08-14T08:15:35.781Z,52.18
2023-08-14T08:16:35.767Z,51.22
2023-08-14T08:17:35.757Z,51.03
2023-08-14T08:18:35.737Z,51.37
2023-08-14T08:19:35.813Z,51.25
2023-08-14T08:20:35.737Z,50.49
2023-08-14T08:22:07.624Z,50.88
2023-08-14T08:22:35.720Z,49.68
2023-08-14T08:23:35.715Z,50.17
2023-08-14T08:24:35.705Z,49.87
2023-08-14T08:25:35.706Z,52.15
2023-08-14T08:26:35.694Z,51.46
2023-08-14T08:27:35.705Z,50.49
2023-08-14T08:28:35.660Z,51.27
2023-08-14T08:29:35.644Z,50.20
2023-08-14T08:30:35.687Z,52.69
2023-08-14T08:31:35.650Z,52.52
2023-08-14T08:32:35.646Z,53.95
2023-08-14T08:33:35.646Z,55.08
2023-08-14T08:34:35.604Z,55.38
2023-08-14T08:35:35.619Z,54.89
2023-08-14T08:36:35.601Z,54.89
2023-08-14T08:37:35.584Z,56.32
2023-08-14T08:38:35.568Z,56.25
2023-08-14T08:39:35.587Z,56.35
2023-08-14T08:40:35.545Z,56.52
2023-08-14T08:41:35.569Z,56.69
2023-08-14T08:42:35.552Z,56.56
2023-08-14T08:43:35.584Z,55.26
2023-08-14T08:44:37.403Z,54.25
2023-08-14T08:45:35.544Z,53.33
2023-08-14T08:46:35.502Z,54.29
2023-08-14T08:47:36.146Z,53.48
2023-08-14T08:49:35.531Z,52.50
2023-08-14T08:50:35.473Z,52.20
2023-08-14T08:51:36.469Z,53.31
2023-08-14T08:52:35.442Z,53.92
2023-08-14T08:53:35.446Z,54.12
2023-08-14T08:54:35.425Z,53.83
2023-08-14T08:55:35.468Z,54.52
2023-08-14T08:56:35.411Z,53.83
2023-08-14T08:57:37.489Z,53.73
2023-08-14T08:58:37.429Z,53.41
2023-08-14T08:59:36.392Z,53.48
2023-08-14T09:00:35.415Z,53.38
2023-08-14T09:01:35.415Z,53.19
2023-08-14T09:02:35.522Z,54.33
2023-08-14T09:03:35.436Z,53.94
2023-08-14T09:04:35.441Z,52.99
2023-08-14T09:05:35.344Z,51.59
2023-08-14T09:06:35.340Z,51.86
2023-08-14T09:07:35.315Z,51.66
2023-08-14T09:08:37.415Z,52.45
2023-08-14T09:09:35.287Z,50.95
2023-08-14T09:10:35.282Z,53.03
2023-08-14T09:11:35.269Z,52.64
2023-08-14T09:12:35.274Z,53.69
2023-08-14T09:13:35.280Z,52.20
2023-08-14T09:14:35.265Z,51.20
2023-08-14T09:16:35.238Z,51.98
2023-08-14T09:17:35.267Z,52.37
2023-08-14T09:18:35.211Z,51.68
2023-08-14T09:19:35.207Z,52.00
2023-08-14T09:20:35.211Z,52.69
2023-08-14T09:21:35.198Z,51.20
2023-08-14T09:22:35.236Z,51.71
2023-08-14T09:23:35.163Z,53.59
2023-08-14T09:24:35.156Z,52.67
2023-08-14T09:25:35.146Z,54.49
2023-08-14T09:26:36.127Z,55.03
2023-08-14T09:27:36.172Z,57.54
2023-08-14T09:28:35.112Z,57.37
2023-08-14T09:29:35.132Z,57.37
2023-08-14T09:30:35.097Z,58.16
2023-08-14T09:31:35.870Z,57.79
2023-08-14T09:32:35.176Z,58.26
2023-08-14T09:33:35.172Z,58.06
2023-08-14T09:34:35.063Z,57.77
2023-08-14T09:35:35.060Z,57.18
2023-08-14T09:36:35.048Z,57.15
2023-08-14T09:37:35.057Z,57.35
2023-08-14T09:38:35.036Z,56.73
2023-08-14T09:39:35.023Z,56.93
2023-08-14T09:40:35.024Z,57.20
2023-08-14T09:41:35.026Z,56.83
2023-08-14T09:42:35.011Z,57.22
2023-08-14T09:43:34.999Z,56.93
2023-08-14T09:44:34.997Z,58.99
2023-08-14T09:45:34.974Z,57.20
2023-08-14T09:46:35.128Z,56.97
2023-08-14T09:47:35.227Z,56.38
2023-08-14T09:48:34.957Z,56.94
2023-08-14T09:49:34.926Z,57.46
2023-08-14T09:50:34.936Z,57.26
2023-08-14T09:51:34.942Z,57.42
2023-08-14T09:52:34.914Z,57.94
2023-08-14T09:53:34.898Z,58.43
2023-08-14T09:54:35.415Z,58.89
2023-08-14T09:55:34.885Z,58.37
2023-08-14T09:56:34.909Z,58.05
2023-08-14T09:57:34.861Z,57.04
2023-08-14T09:58:34.834Z,57.07
2023-08-14T09:59:34.835Z,56.55
2023-08-14T10:00:34.850Z,56.72
2023-08-14T10:01:34.867Z,58.42
2023-08-14T10:02:34.913Z,56.62
2023-08-14T10:03:34.832Z,56.98
2023-08-14T10:04:34.805Z,57.11
2023-08-14T10:05:34.935Z,57.14
2023-08-14T10:06:34.806Z,58.12
2023-08-14T10:07:34.795Z,58.96
2023-08-14T10:08:34.781Z,60.07
2023-08-14T10:09:34.752Z,60.57
2023-08-14T10:10:34.767Z,61.35
2023-08-14T10:11:34.738Z,60.27
2023-08-14T10:12:34.718Z,59.39
2023-08-14T10:13:34.757Z,59.81
2023-08-14T10:14:34.698Z,60.63
2023-08-14T10:15:34.689Z,61.11
2023-08-14T10:16:34.800Z,61.93
2023-08-14T10:17:34.678Z,62.03
2023-08-14T10:18:34.785Z,61.51
2023-08-14T10:19:34.649Z,61.71
2023-08-14T10:20:35.069Z,61.02
2023-08-14T10:21:34.629Z,62.13
2023-08-14T10:22:34.611Z,62.10
2023-08-14T10:23:34.633Z,62.07
2023-08-14T10:24:34.603Z,61.65
2023-08-14T10:25:34.590Z,61.45
2023-08-14T10:26:34.650Z,60.76
2023-08-14T10:27:34.609Z,59.78
2023-08-14T10:28:34.585Z,59.48
2023-08-14T10:29:34.594Z,61.07
2023-08-14T10:30:34.610Z,59.52
2023-08-14T10:31:34.528Z,59.42
2023-08-14T10:32:34.584Z,60.18
2023-08-14T10:33:34.514Z,59.20
2023-08-14T10:34:34.542Z,60.21
2023-08-14T10:35:34.522Z,58.94
2023-08-14T10:36:34.557Z,59.23
2023-08-14T10:37:34.521Z,59.89
2023-08-14T10:38:34.497Z,59.36
2023-08-14T10:39:34.518Z,60.60
2023-08-14T10:40:34.456Z,59.42
2023-08-14T10:41:34.454Z,58.94
2023-08-14T10:42:34.457Z,59.92
2023-08-14T10:43:34.426Z,59.99
2023-08-14T10:44:34.408Z,58.76
2023-08-14T10:45:34.453Z,60.93
2023-08-14T10:46:34.440Z,60.83
2023-08-14T10:47:34.391Z,60.47
2023-08-14T10:48:34.373Z,60.96
2023-08-14T10:49:34.360Z,60.34
2023-08-14T10:50:34.350Z,60.66
2023-08-14T10:51:34.388Z,61.91
2023-08-14T10:52:35.377Z,60.60
2023-08-14T10:53:34.334Z,61.71
2023-08-14T10:54:34.325Z,61.10
2023-08-14T10:55:34.320Z,60.60
2023-08-14T10:56:34.285Z,60.50
2023-08-14T10:57:34.301Z,61.19
2023-08-14T10:58:34.309Z,62.01
2023-08-14T10:59:34.267Z,61.42
2023-08-14T11:00:34.272Z,61.03
2023-08-14T11:01:34.299Z,61.94
2023-08-14T11:02:34.232Z,62.24
2023-08-14T11:03:34.262Z,62.82
2023-08-14T11:04:34.260Z,62.63
2023-08-14T11:05:34.225Z,62.76
2023-08-14T11:06:34.199Z,62.96
2023-08-14T11:07:34.196Z,63.67
2023-08-14T11:08:34.215Z,63.78
2023-08-14T11:09:34.192Z,63.60
2023-08-14T11:10:34.184Z,64.10
2023-08-14T11:11:34.155Z,64.00
2023-08-14T11:12:34.238Z,64.13
2023-08-14T11:13:34.154Z,65.22
2023-08-14T11:14:34.132Z,65.22
2023-08-14T11:15:34.138Z,65.91
2023-08-14T11:16:34.217Z,65.22
2023-08-14T11:17:34.172Z,65.22
2023-08-14T11:18:34.178Z,65.51
2023-08-14T11:19:34.110Z,65.51
2023-08-14T11:20:34.071Z,64.53
2023-08-14T11:21:34.081Z,64.32
2023-08-14T11:22:34.054Z,65.61
2023-08-14T11:23:34.078Z,65.80
2023-08-14T11:24:34.059Z,66.13
2023-08-14T11:25:34.019Z,66.43
2023-08-14T11:26:34.014Z,66.53
2023-08-14T11:27:34.020Z,66.10
2023-08-14T11:28:34.015Z,66.82
2023-08-14T11:29:33.993Z,65.74
2023-08-14T11:30:34.011Z,66.20
2023-08-14T11:31:34.798Z,66.10
2023-08-14T11:32:35.009Z,65.64
2023-08-14T11:33:33.955Z,65.80
2023-08-14T11:34:33.970Z,65.51
2023-08-14T11:35:33.953Z,65.91
2023-08-14T11:36:35.481Z,66.53
2023-08-14T11:37:34.912Z,66.33
2023-08-14T11:38:33.916Z,66.33
2023-08-14T11:39:33.898Z,65.74
2023-08-14T11:40:33.901Z,66.03
2023-08-14T11:41:33.879Z,66.63
2023-08-14T11:42:33.861Z,66.53
2023-08-14T11:43:33.848Z,66.43
2023-08-14T11:44:33.833Z,66.30
2023-08-14T11:45:33.849Z,66.60
2023-08-14T11:46:33.912Z,66.56
2023-08-14T11:47:33.935Z,65.80
2023-08-14T11:48:33.858Z,64.29
2023-08-14T11:49:33.800Z,65.58
2023-08-14T11:50:33.799Z,65.70
2023-08-14T11:51:33.828Z,64.42
2023-08-14T11:52:33.783Z,65.61
2023-08-14T11:53:33.739Z,66.39
2023-08-14T11:54:33.756Z,66.49
2023-08-14T11:55:33.746Z,66.00
2023-08-14T11:56:33.962Z,65.31
2023-08-14T11:57:33.726Z,65.48
2023-08-14T11:58:33.739Z,65.87
2023-08-14T11:59:33.690Z,66.17
2023-08-14T12:00:34.483Z,65.64
2023-08-14T12:01:34.804Z,66.40
2023-08-14T12:02:33.707Z,64.43
2023-08-14T12:03:33.690Z,63.94
2023-08-14T12:04:33.706Z,64.73
2023-08-14T12:05:33.654Z,64.07
2023-08-14T12:06:33.634Z,63.84
2023-08-14T12:07:33.641Z,64.23
2023-08-14T12:08:33.637Z,63.35
2023-08-14T12:09:33.600Z,64.14
2023-08-14T12:10:33.582Z,64.20
2023-08-14T12:11:33.579Z,64.01
2023-08-14T12:12:35.093Z,63.22
2023-08-14T12:13:33.586Z,64.07
2023-08-14T12:14:33.555Z,61.84
2023-08-14T12:15:33.621Z,62.50
2023-08-14T12:16:33.596Z,63.58
2023-08-14T12:17:33.704Z,62.99
2023-08-14T12:18:33.543Z,63.29
2023-08-14T12:19:33.507Z,63.19
2023-08-14T12:20:33.533Z,62.99
2023-08-14T12:21:33.499Z,62.87
2023-08-14T12:22:33.502Z,62.18
2023-08-14T12:23:33.476Z,62.01
2023-08-14T12:24:33.460Z,61.71
2023-08-14T12:25:33.481Z,61.87
2023-08-14T12:26:33.463Z,62.63
2023-08-14T12:27:33.422Z,62.27
2023-08-14T12:28:33.412Z,63.91
2023-08-14T12:29:33.452Z,63.18
2023-08-14T12:30:33.405Z,64.23
2023-08-14T12:31:33.421Z,65.31
2023-08-14T12:32:33.420Z,63.25
2023-08-14T12:33:33.372Z,62.37
2023-08-14T12:34:33.368Z,63.97
2023-08-14T12:35:33.398Z,63.97
2023-08-14T12:36:33.332Z,64.07
2023-08-14T12:37:33.345Z,64.17
2023-08-14T12:38:33.316Z,64.04
2023-08-14T12:39:33.341Z,63.54
2023-08-14T12:40:33.315Z,62.96
2023-08-14T12:41:33.336Z,63.94
2023-08-14T12:42:33.277Z,63.06
2023-08-14T12:43:39.719Z,63.94
2023-08-14T12:44:34.299Z,62.79
2023-08-14T12:45:33.286Z,65.25
2023-08-14T12:46:33.316Z,63.41
2023-08-14T12:47:33.367Z,64.10
2023-08-14T12:48:33.221Z,63.81
2023-08-14T12:49:37.874Z,64.39
2023-08-14T12:50:34.229Z,63.90
2023-08-14T12:51:33.188Z,62.36
2023-08-14T12:52:33.187Z,63.15
2023-08-14T12:53:33.248Z,63.64
2023-08-14T12:54:38.754Z,64.53
2023-08-14T12:55:34.161Z,63.54